sensor_id;sensor_type;location;lat;lon;timestamp;P1;durP1;ratioP1;P2;durP2;ratioP2
17488;SDS011;8861;52.644;4.734;2023-07-20T00:01:10;3.50;;;3.20;;
17488;SDS011;8861;52.644;4.734;2023-07-20T00:03:37;3.43;;;3.20;;
17488;SDS011;8861;52.644;4.734;2023-07-20T00:06:04;3.80;;;3.50;;
17488;SDS011;8861;52.644;4.734;2023-07-20T00:08:31;4.70;;;4.30;;
17488;SDS011;8861;52.644;4.734;2023-07-20T00:10:58;4.03;;;3.73;;
17488;SDS011;8861;52.644;4.734;2023-07-20T00:13:25;4.57;;;4.17;;
17488;SDS011;8861;52.644;4.734;2023-07-20T00:15:52;4.03;;;3.70;;
17488;SDS011;8861;52.644;4.734;2023-07-20T00:18:21;4.57;;;4.17;;
17488;SDS011;8861;52.644;4.734;2023-07-20T00:20:51;4.90;;;4.40;;
17488;SDS011;8861;52.644;4.734;2023-07-20T00:23:18;4.57;;;4.17;;
17488;SDS011;8861;52.644;4.734;2023-07-20T00:25:46;5.00;;;4.60;;
17488;SDS011;8861;52.644;4.734;2023-07-20T00:28:13;4.60;;;4.20;;
17488;SDS011;8861;52.644;4.734;2023-07-20T00:30:40;5.30;;;4.80;;
17488;SDS011;8861;52.644;4.734;2023-07-20T00:33:09;4.77;;;4.30;;
17488;SDS011;8861;52.644;4.734;2023-07-20T00:35:39;4.47;;;4.07;;
17488;SDS011;8861;52.644;4.734;2023-07-20T00:38:06;4.30;;;3.90;;
17488;SDS011;8861;52.644;4.734;2023-07-20T00:40:35;4.87;;;4.23;;
17488;SDS011;8861;52.644;4.734;2023-07-20T00:43:03;4.03;;;3.73;;
17488;SDS011;8861;52.644;4.734;2023-07-20T00:45:30;4.10;;;3.70;;
17488;SDS011;8861;52.644;4.734;2023-07-20T00:47:57;4.10;;;3.80;;
17488;SDS011;8861;52.644;4.734;2023-07-20T00:50:25;4.40;;;4.00;;
17488;SDS011;8861;52.644;4.734;2023-07-20T00:52:55;4.17;;;3.87;;
17488;SDS011;8861;52.644;4.734;2023-07-20T00:55:23;4.30;;;3.90;;
17488;SDS011;8861;52.644;4.734;2023-07-20T00:57:50;4.27;;;3.87;;
17488;SDS011;8861;52.644;4.734;2023-07-20T01:00:18;3.93;;;3.63;;
17488;SDS011;8861;52.644;4.734;2023-07-20T01:02:45;3.80;;;3.50;;
17488;SDS011;8861;52.644;4.734;2023-07-20T01:05:13;3.80;;;3.50;;
17488;SDS011;8861;52.644;4.734;2023-07-20T01:07:43;3.93;;;3.60;;
17488;SDS011;8861;52.644;4.734;2023-07-20T01:10:19;4.27;;;3.97;;
17488;SDS011;8861;52.644;4.734;2023-07-20T01:12:55;4.17;;;3.87;;
17488;SDS011;8861;52.644;4.734;2023-07-20T01:15:22;3.57;;;3.27;;
17488;SDS011;8861;52.644;4.734;2023-07-20T01:17:49;3.53;;;3.23;;
17488;SDS011;8861;52.644;4.734;2023-07-20T01:20:18;4.07;;;3.73;;
17488;SDS011;8861;52.644;4.734;2023-07-20T01:22:55;4.07;;;3.77;;
17488;SDS011;8861;52.644;4.734;2023-07-20T01:26:05;4.43;;;4.03;;
17488;SDS011;8861;52.644;4.734;2023-07-20T01:28:57;4.10;;;3.70;;
17488;SDS011;8861;52.644;4.734;2023-07-20T01:31:39;4.23;;;3.83;;
17488;SDS011;8861;52.644;4.734;2023-07-20T01:34:08;4.00;;;3.70;;
17488;SDS011;8861;52.644;4.734;2023-07-20T01:36:38;4.00;;;3.70;;
17488;SDS011;8861;52.644;4.734;2023-07-20T01:39:05;3.90;;;3.60;;
17488;SDS011;8861;52.644;4.734;2023-07-20T01:41:34;3.60;;;3.30;;
17488;SDS011;8861;52.644;4.734;2023-07-20T01:44:03;3.87;;;3.57;;
17488;SDS011;8861;52.644;4.734;2023-07-20T01:46:30;3.77;;;3.47;;
17488;SDS011;8861;52.644;4.734;2023-07-20T01:48:58;3.90;;;3.60;;
17488;SDS011;8861;52.644;4.734;2023-07-20T01:51:25;3.80;;;3.50;;
17488;SDS011;8861;52.644;4.734;2023-07-20T01:53:52;4.33;;;3.93;;
17488;SDS011;8861;52.644;4.734;2023-07-20T01:56:20;3.60;;;3.30;;
17488;SDS011;8861;52.644;4.734;2023-07-20T01:58:47;4.13;;;3.80;;
17488;SDS011;8861;52.644;4.734;2023-07-20T02:01:14;3.97;;;3.67;;
17488;SDS011;8861;52.644;4.734;2023-07-20T02:03:41;4.20;;;3.80;;
17488;SDS011;8861;52.644;4.734;2023-07-20T02:06:09;4.00;;;3.70;;
17488;SDS011;8861;52.644;4.734;2023-07-20T02:08:36;4.60;;;3.90;;
17488;SDS011;8861;52.644;4.734;2023-07-20T02:11:03;3.93;;;3.57;;
17488;SDS011;8861;52.644;4.734;2023-07-20T02:13:30;3.90;;;3.50;;
17488;SDS011;8861;52.644;4.734;2023-07-20T02:15:57;4.10;;;3.70;;
17488;SDS011;8861;52.644;4.734;2023-07-20T02:18:24;3.70;;;3.40;;
17488;SDS011;8861;52.644;4.734;2023-07-20T02:20:52;3.87;;;3.57;;
17488;SDS011;8861;52.644;4.734;2023-07-20T02:23:21;4.00;;;3.60;;
17488;SDS011;8861;52.644;4.734;2023-07-20T02:25:47;3.80;;;3.50;;
17488;SDS011;8861;52.644;4.734;2023-07-20T02:28:15;4.00;;;3.60;;
17488;SDS011;8861;52.644;4.734;2023-07-20T02:30:42;3.97;;;3.67;;
17488;SDS011;8861;52.644;4.734;2023-07-20T02:33:09;3.50;;;3.20;;
17488;SDS011;8861;52.644;4.734;2023-07-20T02:35:36;3.80;;;3.47;;
17488;SDS011;8861;52.644;4.734;2023-07-20T02:38:03;3.50;;;3.20;;
17488;SDS011;8861;52.644;4.734;2023-07-20T02:40:33;3.73;;;3.43;;
17488;SDS011;8861;52.644;4.734;2023-07-20T02:43:00;3.60;;;3.30;;
17488;SDS011;8861;52.644;4.734;2023-07-20T02:45:27;3.80;;;3.50;;
17488;SDS011;8861;52.644;4.734;2023-07-20T02:47:54;3.60;;;3.30;;
17488;SDS011;8861;52.644;4.734;2023-07-20T02:50:22;3.77;;;3.47;;
17488;SDS011;8861;52.644;4.734;2023-07-20T02:52:49;3.67;;;3.37;;
17488;SDS011;8861;52.644;4.734;2023-07-20T02:55:16;3.90;;;3.60;;
17488;SDS011;8861;52.644;4.734;2023-07-20T02:57:44;3.70;;;3.40;;
17488;SDS011;8861;52.644;4.734;2023-07-20T03:00:12;3.63;;;3.33;;
17488;SDS011;8861;52.644;4.734;2023-07-20T03:02:41;3.73;;;3.43;;
17488;SDS011;8861;52.644;4.734;2023-07-20T03:05:08;4.10;;;3.70;;
17488;SDS011;8861;52.644;4.734;2023-07-20T03:07:35;3.67;;;3.37;;
17488;SDS011;8861;52.644;4.734;2023-07-20T03:10:03;3.60;;;3.30;;
17488;SDS011;8861;52.644;4.734;2023-07-20T03:12:32;3.97;;;3.57;;
17488;SDS011;8861;52.644;4.734;2023-07-20T03:15:01;3.60;;;3.30;;
17488;SDS011;8861;52.644;4.734;2023-07-20T03:17:28;3.77;;;3.47;;
17488;SDS011;8861;52.644;4.734;2023-07-20T03:19:55;3.17;;;2.97;;
17488;SDS011;8861;52.644;4.734;2023-07-20T03:22:22;4.13;;;3.77;;
17488;SDS011;8861;52.644;4.734;2023-07-20T03:24:49;3.70;;;3.40;;
17488;SDS011;8861;52.644;4.734;2023-07-20T03:27:17;3.60;;;3.30;;
17488;SDS011;8861;52.644;4.734;2023-07-20T03:29:44;3.70;;;3.40;;
17488;SDS011;8861;52.644;4.734;2023-07-20T03:32:13;3.60;;;3.30;;
17488;SDS011;8861;52.644;4.734;2023-07-20T03:34:40;4.20;;;3.90;;
17488;SDS011;8861;52.644;4.734;2023-07-20T03:37:07;3.80;;;3.50;;
17488;SDS011;8861;52.644;4.734;2023-07-20T03:39:34;4.20;;;3.30;;
17488;SDS011;8861;52.644;4.734;2023-07-20T03:42:01;4.00;;;3.70;;
17488;SDS011;8861;52.644;4.734;2023-07-20T03:44:28;3.60;;;3.30;;
17488;SDS011;8861;52.644;4.734;2023-07-20T03:46:55;3.90;;;3.60;;
17488;SDS011;8861;52.644;4.734;2023-07-20T03:49:24;4.50;;;3.50;;
17488;SDS011;8861;52.644;4.734;2023-07-20T03:51:51;4.07;;;3.77;;
17488;SDS011;8861;52.644;4.734;2023-07-20T03:54:18;3.70;;;3.40;;
17488;SDS011;8861;52.644;4.734;2023-07-20T03:56:45;3.50;;;3.20;;
17488;SDS011;8861;52.644;4.734;2023-07-20T03:59:12;3.53;;;3.23;;
17488;SDS011;8861;52.644;4.734;2023-07-20T04:01:39;3.30;;;3.00;;
17488;SDS011;8861;52.644;4.734;2023-07-20T04:04:06;3.60;;;3.30;;
17488;SDS011;8861;52.644;4.734;2023-07-20T04:06:35;3.90;;;3.60;;
17488;SDS011;8861;52.644;4.734;2023-07-20T04:09:02;3.70;;;3.40;;
17488;SDS011;8861;52.644;4.734;2023-07-20T04:11:31;3.90;;;3.60;;
17488;SDS011;8861;52.644;4.734;2023-07-20T04:13:58;3.73;;;3.43;;
17488;SDS011;8861;52.644;4.734;2023-07-20T04:16:25;3.23;;;3.03;;
17488;SDS011;8861;52.644;4.734;2023-07-20T04:18:54;3.73;;;3.43;;
17488;SDS011;8861;52.644;4.734;2023-07-20T04:21:21;3.90;;;3.60;;
17488;SDS011;8861;52.644;4.734;2023-07-20T04:23:50;3.43;;;3.13;;
17488;SDS011;8861;52.644;4.734;2023-07-20T04:26:17;3.60;;;3.30;;
17488;SDS011;8861;52.644;4.734;2023-07-20T04:28:44;3.50;;;3.20;;
17488;SDS011;8861;52.644;4.734;2023-07-20T04:31:11;3.37;;;3.10;;
17488;SDS011;8861;52.644;4.734;2023-07-20T04:33:39;3.63;;;3.33;;
17488;SDS011;8861;52.644;4.734;2023-07-20T04:36:06;4.27;;;3.87;;
17488;SDS011;8861;52.644;4.734;2023-07-20T04:38:34;4.17;;;3.77;;
17488;SDS011;8861;52.644;4.734;2023-07-20T04:41:02;4.40;;;4.00;;
17488;SDS011;8861;52.644;4.734;2023-07-20T04:43:29;4.10;;;3.67;;
17488;SDS011;8861;52.644;4.734;2023-07-20T04:45:56;4.13;;;3.73;;
17488;SDS011;8861;52.644;4.734;2023-07-20T04:48:23;4.57;;;3.80;;
17488;SDS011;8861;52.644;4.734;2023-07-20T04:50:50;4.43;;;3.93;;
17488;SDS011;8861;52.644;4.734;2023-07-20T04:53:17;4.57;;;4.17;;
17488;SDS011;8861;52.644;4.734;2023-07-20T04:55:47;4.70;;;4.00;;
17488;SDS011;8861;52.644;4.734;2023-07-20T04:58:18;4.30;;;3.90;;
17488;SDS011;8861;52.644;4.734;2023-07-20T05:00:46;4.60;;;4.20;;
17488;SDS011;8861;52.644;4.734;2023-07-20T05:03:14;3.93;;;3.60;;
17488;SDS011;8861;52.644;4.734;2023-07-20T05:05:41;4.00;;;3.70;;
17488;SDS011;8861;52.644;4.734;2023-07-20T05:08:08;4.33;;;4.03;;
17488;SDS011;8861;52.644;4.734;2023-07-20T05:10:35;4.60;;;4.20;;
17488;SDS011;8861;52.644;4.734;2023-07-20T05:13:02;3.97;;;3.67;;
17488;SDS011;8861;52.644;4.734;2023-07-20T05:15:32;4.23;;;3.93;;
17488;SDS011;8861;52.644;4.734;2023-07-20T05:17:59;4.33;;;3.93;;
17488;SDS011;8861;52.644;4.734;2023-07-20T05:20:26;4.23;;;3.83;;
17488;SDS011;8861;52.644;4.734;2023-07-20T05:22:53;3.90;;;3.60;;
17488;SDS011;8861;52.644;4.734;2023-07-20T05:25:20;4.10;;;3.80;;
17488;SDS011;8861;52.644;4.734;2023-07-20T05:27:47;4.53;;;3.90;;
17488;SDS011;8861;52.644;4.734;2023-07-20T05:30:15;3.87;;;3.57;;
17488;SDS011;8861;52.644;4.734;2023-07-20T05:32:44;3.63;;;3.33;;
17488;SDS011;8861;52.644;4.734;2023-07-20T05:35:16;3.33;;;3.03;;
17488;SDS011;8861;52.644;4.734;2023-07-20T05:37:43;2.87;;;2.60;;
17488;SDS011;8861;52.644;4.734;2023-07-20T05:40:10;3.10;;;2.90;;
17488;SDS011;8861;52.644;4.734;2023-07-20T05:42:38;2.70;;;2.50;;
17488;SDS011;8861;52.644;4.734;2023-07-20T05:45:05;3.23;;;2.93;;
17488;SDS011;8861;52.644;4.734;2023-07-20T05:47:33;2.90;;;2.70;;
17488;SDS011;8861;52.644;4.734;2023-07-20T05:50:01;2.73;;;2.53;;
17488;SDS011;8861;52.644;4.734;2023-07-20T05:52:29;2.87;;;2.67;;
17488;SDS011;8861;52.644;4.734;2023-07-20T05:54:56;2.70;;;2.50;;
17488;SDS011;8861;52.644;4.734;2023-07-20T05:57:23;2.80;;;2.60;;
17488;SDS011;8861;52.644;4.734;2023-07-20T05:59:50;2.70;;;2.50;;
17488;SDS011;8861;52.644;4.734;2023-07-20T06:02:17;2.40;;;2.20;;
17488;SDS011;8861;52.644;4.734;2023-07-20T06:04:44;3.33;;;3.03;;
17488;SDS011;8861;52.644;4.734;2023-07-20T06:07:13;3.00;;;2.70;;
17488;SDS011;8861;52.644;4.734;2023-07-20T06:09:40;3.07;;;2.87;;
17488;SDS011;8861;52.644;4.734;2023-07-20T06:12:07;3.50;;;3.20;;
17488;SDS011;8861;52.644;4.734;2023-07-20T06:14:35;3.30;;;3.00;;
17488;SDS011;8861;52.644;4.734;2023-07-20T06:17:03;3.00;;;2.80;;
17488;SDS011;8861;52.644;4.734;2023-07-20T06:19:31;3.00;;;2.80;;
17488;SDS011;8861;52.644;4.734;2023-07-20T06:21:58;3.20;;;3.00;;
17488;SDS011;8861;52.644;4.734;2023-07-20T06:24:26;3.80;;;3.37;;
17488;SDS011;8861;52.644;4.734;2023-07-20T06:26:53;3.80;;;3.50;;
17488;SDS011;8861;52.644;4.734;2023-07-20T06:29:20;3.47;;;3.17;;
17488;SDS011;8861;52.644;4.734;2023-07-20T06:31:47;3.60;;;3.00;;
17488;SDS011;8861;52.644;4.734;2023-07-20T06:34:14;3.60;;;3.30;;
17488;SDS011;8861;52.644;4.734;2023-07-20T06:36:41;3.47;;;3.23;;
17488;SDS011;8861;52.644;4.734;2023-07-20T06:39:08;3.93;;;3.63;;
17488;SDS011;8861;52.644;4.734;2023-07-20T06:41:37;4.00;;;3.70;;
17488;SDS011;8861;52.644;4.734;2023-07-20T06:44:04;4.40;;;4.00;;
17488;SDS011;8861;52.644;4.734;2023-07-20T06:46:31;4.27;;;3.80;;
17488;SDS011;8861;52.644;4.734;2023-07-20T06:48:58;5.40;;;4.20;;
17488;SDS011;8861;52.644;4.734;2023-07-20T06:51:25;4.50;;;4.10;;
17488;SDS011;8861;52.644;4.734;2023-07-20T06:53:52;4.13;;;3.80;;
17488;SDS011;8861;52.644;4.734;2023-07-20T06:56:19;4.80;;;4.40;;
17488;SDS011;8861;52.644;4.734;2023-07-20T06:58:47;4.33;;;4.00;;
17488;SDS011;8861;52.644;4.734;2023-07-20T07:01:14;4.83;;;4.43;;
17488;SDS011;8861;52.644;4.734;2023-07-20T07:03:42;4.77;;;4.07;;
17488;SDS011;8861;52.644;4.734;2023-07-20T07:06:09;4.10;;;3.80;;
17488;SDS011;8861;52.644;4.734;2023-07-20T07:08:36;3.97;;;3.67;;
17488;SDS011;8861;52.644;4.734;2023-07-20T07:11:03;4.33;;;4.03;;
17488;SDS011;8861;52.644;4.734;2023-07-20T07:13:31;3.90;;;3.60;;
17488;SDS011;8861;52.644;4.734;2023-07-20T07:15:59;5.10;;;4.70;;
17488;SDS011;8861;52.644;4.734;2023-07-20T07:18:26;4.50;;;4.10;;
17488;SDS011;8861;52.644;4.734;2023-07-20T07:20:53;4.60;;;4.20;;
17488;SDS011;8861;52.644;4.734;2023-07-20T07:23:20;4.23;;;3.93;;
17488;SDS011;8861;52.644;4.734;2023-07-20T07:25:47;4.77;;;4.30;;
17488;SDS011;8861;52.644;4.734;2023-07-20T07:28:14;4.90;;;4.50;;
17488;SDS011;8861;52.644;4.734;2023-07-20T07:30:41;4.70;;;4.30;;
17488;SDS011;8861;52.644;4.734;2023-07-20T07:33:10;4.57;;;4.17;;
17488;SDS011;8861;52.644;4.734;2023-07-20T07:35:37;4.43;;;4.03;;
17488;SDS011;8861;52.644;4.734;2023-07-20T07:38:05;4.40;;;4.00;;
17488;SDS011;8861;52.644;4.734;2023-07-20T07:40:32;4.00;;;3.60;;
17488;SDS011;8861;52.644;4.734;2023-07-20T07:42:59;4.03;;;3.73;;
17488;SDS011;8861;52.644;4.734;2023-07-20T07:45:26;4.17;;;3.87;;
17488;SDS011;8861;52.644;4.734;2023-07-20T07:47:53;4.33;;;4.03;;
17488;SDS011;8861;52.644;4.734;2023-07-20T07:50:21;4.70;;;4.30;;
17488;SDS011;8861;52.644;4.734;2023-07-20T07:52:49;4.40;;;4.00;;
17488;SDS011;8861;52.644;4.734;2023-07-20T07:55:15;4.20;;;3.80;;
17488;SDS011;8861;52.644;4.734;2023-07-20T07:57:43;4.43;;;4.03;;
17488;SDS011;8861;52.644;4.734;2023-07-20T08:00:10;4.40;;;4.00;;
17488;SDS011;8861;52.644;4.734;2023-07-20T08:02:40;4.10;;;3.80;;
17488;SDS011;8861;52.644;4.734;2023-07-20T08:05:08;4.47;;;4.10;;
17488;SDS011;8861;52.644;4.734;2023-07-20T08:07:36;4.30;;;3.90;;
17488;SDS011;8861;52.644;4.734;2023-07-20T08:10:04;4.27;;;3.97;;
17488;SDS011;8861;52.644;4.734;2023-07-20T08:12:33;4.23;;;3.93;;
17488;SDS011;8861;52.644;4.734;2023-07-20T08:15:00;4.07;;;3.77;;
17488;SDS011;8861;52.644;4.734;2023-07-20T08:17:27;3.87;;;3.57;;
17488;SDS011;8861;52.644;4.734;2023-07-20T08:19:54;3.90;;;3.60;;
17488;SDS011;8861;52.644;4.734;2023-07-20T08:22:21;3.80;;;3.50;;
17488;SDS011;8861;52.644;4.734;2023-07-20T08:24:49;4.20;;;3.80;;
17488;SDS011;8861;52.644;4.734;2023-07-20T08:27:16;4.10;;;3.80;;
17488;SDS011;8861;52.644;4.734;2023-07-20T08:29:43;3.80;;;3.50;;
17488;SDS011;8861;52.644;4.734;2023-07-20T08:32:10;3.97;;;3.67;;
17488;SDS011;8861;52.644;4.734;2023-07-20T08:34:38;4.80;;;4.40;;
17488;SDS011;8861;52.644;4.734;2023-07-20T08:37:05;4.03;;;3.73;;
17488;SDS011;8861;52.644;4.734;2023-07-20T08:39:35;4.43;;;4.03;;
17488;SDS011;8861;52.644;4.734;2023-07-20T08:42:04;4.47;;;4.07;;
17488;SDS011;8861;52.644;4.734;2023-07-20T08:44:32;4.33;;;3.93;;
17488;SDS011;8861;52.644;4.734;2023-07-20T08:47:00;4.30;;;4.00;;
17488;SDS011;8861;52.644;4.734;2023-07-20T08:49:29;4.90;;;4.50;;
17488;SDS011;8861;52.644;4.734;2023-07-20T08:51:57;4.60;;;3.97;;
17488;SDS011;8861;52.644;4.734;2023-07-20T08:54:25;3.30;;;3.00;;
17488;SDS011;8861;52.644;4.734;2023-07-20T08:56:57;4.00;;;3.60;;
17488;SDS011;8861;52.644;4.734;2023-07-20T08:59:30;3.80;;;3.50;;
17488;SDS011;8861;52.644;4.734;2023-07-20T09:01:58;4.03;;;3.30;;
17488;SDS011;8861;52.644;4.734;2023-07-20T09:04:25;4.00;;;3.60;;
17488;SDS011;8861;52.644;4.734;2023-07-20T09:06:52;3.80;;;3.10;;
17488;SDS011;8861;52.644;4.734;2023-07-20T09:09:19;3.13;;;2.77;;
17488;SDS011;8861;52.644;4.734;2023-07-20T09:11:47;3.50;;;2.93;;
17488;SDS011;8861;52.644;4.734;2023-07-20T09:14:15;3.13;;;2.83;;
17488;SDS011;8861;52.644;4.734;2023-07-20T09:16:50;3.00;;;2.80;;
17488;SDS011;8861;52.644;4.734;2023-07-20T09:19:19;3.43;;;3.17;;
17488;SDS011;8861;52.644;4.734;2023-07-20T09:21:47;3.87;;;3.20;;
17488;SDS011;8861;52.644;4.734;2023-07-20T09:24:16;3.40;;;2.97;;
17488;SDS011;8861;52.644;4.734;2023-07-20T09:26:45;3.23;;;2.93;;
17488;SDS011;8861;52.644;4.734;2023-07-20T09:29:16;3.37;;;3.07;;
17488;SDS011;8861;52.644;4.734;2023-07-20T09:31:50;3.30;;;2.80;;
17488;SDS011;8861;52.644;4.734;2023-07-20T09:34:26;2.80;;;2.60;;
17488;SDS011;8861;52.644;4.734;2023-07-20T09:36:54;2.60;;;2.40;;
17488;SDS011;8861;52.644;4.734;2023-07-20T09:39:22;2.70;;;2.50;;
17488;SDS011;8861;52.644;4.734;2023-07-20T09:41:49;2.80;;;2.60;;
17488;SDS011;8861;52.644;4.734;2023-07-20T09:44:17;3.37;;;2.40;;
17488;SDS011;8861;52.644;4.734;2023-07-20T09:46:45;2.60;;;2.40;;
17488;SDS011;8861;52.644;4.734;2023-07-20T09:49:14;3.37;;;2.60;;
17488;SDS011;8861;52.644;4.734;2023-07-20T09:51:44;2.20;;;2.10;;
17488;SDS011;8861;52.644;4.734;2023-07-20T09:54:13;2.40;;;2.20;;
17488;SDS011;8861;52.644;4.734;2023-07-20T09:56:40;2.43;;;2.23;;
17488;SDS011;8861;52.644;4.734;2023-07-20T09:59:08;2.60;;;2.40;;
17488;SDS011;8861;52.644;4.734;2023-07-20T10:01:35;2.47;;;2.27;;
17488;SDS011;8861;52.644;4.734;2023-07-20T10:04:07;2.53;;;2.33;;
17488;SDS011;8861;52.644;4.734;2023-07-20T10:06:39;2.30;;;2.03;;
17488;SDS011;8861;52.644;4.734;2023-07-20T10:09:09;2.93;;;2.50;;
17488;SDS011;8861;52.644;4.734;2023-07-20T10:11:38;2.33;;;2.10;;
17488;SDS011;8861;52.644;4.734;2023-07-20T10:14:09;2.17;;;2.00;;
17488;SDS011;8861;52.644;4.734;2023-07-20T10:16:43;2.20;;;2.00;;
17488;SDS011;8861;52.644;4.734;2023-07-20T10:19:17;2.20;;;2.00;;
17488;SDS011;8861;52.644;4.734;2023-07-20T10:21:55;2.37;;;2.10;;
17488;SDS011;8861;52.644;4.734;2023-07-20T10:24:27;2.50;;;2.10;;
17488;SDS011;8861;52.644;4.734;2023-07-20T10:26:55;2.20;;;2.00;;
17488;SDS011;8861;52.644;4.734;2023-07-20T10:29:22;2.30;;;2.10;;
17488;SDS011;8861;52.644;4.734;2023-07-20T10:31:52;2.23;;;2.03;;
17488;SDS011;8861;52.644;4.734;2023-07-20T10:34:20;3.30;;;1.90;;
17488;SDS011;8861;52.644;4.734;2023-07-20T10:36:48;1.93;;;1.83;;
17488;SDS011;8861;52.644;4.734;2023-07-20T10:39:24;2.00;;;1.90;;
17488;SDS011;8861;52.644;4.734;2023-07-20T10:41:59;2.10;;;1.90;;
17488;SDS011;8861;52.644;4.734;2023-07-20T10:44:28;1.73;;;1.63;;
17488;SDS011;8861;52.644;4.734;2023-07-20T10:46:58;2.17;;;1.80;;
17488;SDS011;8861;52.644;4.734;2023-07-20T10:49:26;1.90;;;1.80;;
17488;SDS011;8861;52.644;4.734;2023-07-20T10:51:56;2.47;;;2.03;;
17488;SDS011;8861;52.644;4.734;2023-07-20T10:54:35;1.77;;;1.67;;
17488;SDS011;8861;52.644;4.734;2023-07-20T10:57:24;2.33;;;1.70;;
17488;SDS011;8861;52.644;4.734;2023-07-20T11:00:06;1.77;;;1.67;;
17488;SDS011;8861;52.644;4.734;2023-07-20T11:02:43;1.80;;;1.70;;
17488;SDS011;8861;52.644;4.734;2023-07-20T11:08:02;1.70;;;1.60;;
17488;SDS011;8861;52.644;4.734;2023-07-20T11:10:32;1.77;;;1.67;;
17488;SDS011;8861;52.644;4.734;2023-07-20T11:15:46;1.67;;;1.57;;
17488;SDS011;8861;52.644;4.734;2023-07-20T11:18:14;1.80;;;1.70;;
17488;SDS011;8861;52.644;4.734;2023-07-20T11:20:41;1.60;;;1.50;;
17488;SDS011;8861;52.644;4.734;2023-07-20T11:23:09;2.00;;;1.80;;
17488;SDS011;8861;52.644;4.734;2023-07-20T11:25:38;2.20;;;1.60;;
17488;SDS011;8861;52.644;4.734;2023-07-20T11:28:09;2.00;;;1.90;;
17488;SDS011;8861;52.644;4.734;2023-07-20T11:30:36;1.70;;;1.60;;
17488;SDS011;8861;52.644;4.734;2023-07-20T11:33:04;1.77;;;1.40;;
17488;SDS011;8861;52.644;4.734;2023-07-20T11:35:35;1.60;;;1.50;;
17488;SDS011;8861;52.644;4.734;2023-07-20T11:38:02;2.03;;;1.50;;
17488;SDS011;8861;52.644;4.734;2023-07-20T11:40:32;1.90;;;1.50;;
17488;SDS011;8861;52.644;4.734;2023-07-20T11:43:00;1.57;;;1.43;;
17488;SDS011;8861;52.644;4.734;2023-07-20T11:45:28;1.63;;;1.50;;
17488;SDS011;8861;52.644;4.734;2023-07-20T11:47:58;1.73;;;1.63;;
17488;SDS011;8861;52.644;4.734;2023-07-20T11:50:25;1.43;;;1.33;;
17488;SDS011;8861;52.644;4.734;2023-07-20T11:52:52;1.50;;;1.40;;
17488;SDS011;8861;52.644;4.734;2023-07-20T11:55:19;1.43;;;1.33;;
17488;SDS011;8861;52.644;4.734;2023-07-20T11:58:01;1.47;;;1.37;;
17488;SDS011;8861;52.644;4.734;2023-07-20T12:00:29;1.50;;;1.40;;
17488;SDS011;8861;52.644;4.734;2023-07-20T12:02:56;1.50;;;1.40;;
17488;SDS011;8861;52.644;4.734;2023-07-20T12:05:23;1.87;;;1.40;;
17488;SDS011;8861;52.644;4.734;2023-07-20T12:07:51;1.30;;;1.20;;
17488;SDS011;8861;52.644;4.734;2023-07-20T12:10:23;1.37;;;1.20;;
17488;SDS011;8861;52.644;4.734;2023-07-20T12:12:51;1.23;;;1.10;;
17488;SDS011;8861;52.644;4.734;2023-07-20T12:15:21;1.80;;;0.90;;
17488;SDS011;8861;52.644;4.734;2023-07-20T12:17:51;1.00;;;0.90;;
17488;SDS011;8861;52.644;4.734;2023-07-20T12:20:25;1.07;;;0.90;;
17488;SDS011;8861;52.644;4.734;2023-07-20T12:22:55;1.07;;;0.90;;
17488;SDS011;8861;52.644;4.734;2023-07-20T12:25:31;0.90;;;0.80;;
17488;SDS011;8861;52.644;4.734;2023-07-20T12:28:00;0.70;;;0.70;;
17488;SDS011;8861;52.644;4.734;2023-07-20T12:30:32;0.87;;;0.80;;
17488;SDS011;8861;52.644;4.734;2023-07-20T12:32:59;0.67;;;0.60;;
17488;SDS011;8861;52.644;4.734;2023-07-20T12:35:26;0.60;;;0.60;;
17488;SDS011;8861;52.644;4.734;2023-07-20T12:37:53;0.63;;;0.63;;
17488;SDS011;8861;52.644;4.734;2023-07-20T12:40:20;0.80;;;0.80;;
17488;SDS011;8861;52.644;4.734;2023-07-20T12:42:47;1.07;;;0.80;;
17488;SDS011;8861;52.644;4.734;2023-07-20T12:45:15;0.87;;;0.87;;
17488;SDS011;8861;52.644;4.734;2023-07-20T12:47:43;1.27;;;0.90;;
17488;SDS011;8861;52.644;4.734;2023-07-20T12:50:10;1.43;;;1.10;;
17488;SDS011;8861;52.644;4.734;2023-07-20T12:52:38;1.40;;;1.10;;
17488;SDS011;8861;52.644;4.734;2023-07-20T12:55:06;1.00;;;0.90;;
17488;SDS011;8861;52.644;4.734;2023-07-20T12:57:34;1.67;;;1.20;;
17488;SDS011;8861;52.644;4.734;2023-07-20T13:00:02;1.20;;;1.10;;
17488;SDS011;8861;52.644;4.734;2023-07-20T13:02:31;1.43;;;1.30;;
17488;SDS011;8861;52.644;4.734;2023-07-20T13:05:00;1.33;;;1.23;;
17488;SDS011;8861;52.644;4.734;2023-07-20T13:07:30;1.33;;;1.23;;
17488;SDS011;8861;52.644;4.734;2023-07-20T13:09:58;1.30;;;1.20;;
17488;SDS011;8861;52.644;4.734;2023-07-20T13:12:25;1.33;;;1.20;;
17488;SDS011;8861;52.644;4.734;2023-07-20T13:14:53;1.73;;;1.40;;
17488;SDS011;8861;52.644;4.734;2023-07-20T13:17:21;1.30;;;1.20;;
17488;SDS011;8861;52.644;4.734;2023-07-20T13:19:48;1.33;;;1.23;;
17488;SDS011;8861;52.644;4.734;2023-07-20T13:22:16;1.30;;;1.20;;
17488;SDS011;8861;52.644;4.734;2023-07-20T13:24:44;1.10;;;1.10;;
17488;SDS011;8861;52.644;4.734;2023-07-20T13:27:13;1.93;;;1.37;;
17488;SDS011;8861;52.644;4.734;2023-07-20T13:29:41;1.40;;;1.30;;
17488;SDS011;8861;52.644;4.734;2023-07-20T13:32:08;1.47;;;1.37;;
17488;SDS011;8861;52.644;4.734;2023-07-20T13:34:35;1.37;;;1.27;;
17488;SDS011;8861;52.644;4.734;2023-07-20T13:37:03;2.20;;;1.40;;
17488;SDS011;8861;52.644;4.734;2023-07-20T13:39:31;1.40;;;1.30;;
17488;SDS011;8861;52.644;4.734;2023-07-20T13:41:58;1.27;;;1.20;;
17488;SDS011;8861;52.644;4.734;2023-07-20T13:44:26;1.57;;;1.30;;
17488;SDS011;8861;52.644;4.734;2023-07-20T13:46:54;1.20;;;1.10;;
17488;SDS011;8861;52.644;4.734;2023-07-20T13:49:22;1.20;;;1.10;;
17488;SDS011;8861;52.644;4.734;2023-07-20T13:51:49;1.10;;;1.10;;
17488;SDS011;8861;52.644;4.734;2023-07-20T13:54:16;1.50;;;1.23;;
17488;SDS011;8861;52.644;4.734;2023-07-20T13:56:45;1.47;;;1.33;;
17488;SDS011;8861;52.644;4.734;2023-07-20T13:59:11;1.30;;;1.20;;
17488;SDS011;8861;52.644;4.734;2023-07-20T14:01:39;1.40;;;1.30;;
17488;SDS011;8861;52.644;4.734;2023-07-20T14:04:06;1.30;;;1.20;;
17488;SDS011;8861;52.644;4.734;2023-07-20T14:06:33;1.27;;;1.10;;
17488;SDS011;8861;52.644;4.734;2023-07-20T14:09:00;1.47;;;1.27;;
17488;SDS011;8861;52.644;4.734;2023-07-20T14:11:28;1.20;;;1.10;;
17488;SDS011;8861;52.644;4.734;2023-07-20T14:13:57;1.20;;;1.20;;
17488;SDS011;8861;52.644;4.734;2023-07-20T14:16:24;1.23;;;0.90;;
17488;SDS011;8861;52.644;4.734;2023-07-20T14:18:51;1.20;;;1.00;;
17488;SDS011;8861;52.644;4.734;2023-07-20T14:21:19;0.87;;;0.83;;
17488;SDS011;8861;52.644;4.734;2023-07-20T14:23:47;0.80;;;0.80;;
17488;SDS011;8861;52.644;4.734;2023-07-20T14:26:15;0.90;;;0.90;;
17488;SDS011;8861;52.644;4.734;2023-07-20T14:28:42;0.73;;;0.73;;
17488;SDS011;8861;52.644;4.734;2023-07-20T14:31:10;0.90;;;0.87;;
17488;SDS011;8861;52.644;4.734;2023-07-20T14:33:37;1.33;;;0.60;;
17488;SDS011;8861;52.644;4.734;2023-07-20T14:36:04;0.67;;;0.60;;
17488;SDS011;8861;52.644;4.734;2023-07-20T14:38:33;0.60;;;0.50;;
17488;SDS011;8861;52.644;4.734;2023-07-20T14:41:01;0.50;;;0.50;;
17488;SDS011;8861;52.644;4.734;2023-07-20T14:43:27;1.60;;;0.50;;
17488;SDS011;8861;52.644;4.734;2023-07-20T14:45:55;2.20;;;0.60;;
17488;SDS011;8861;52.644;4.734;2023-07-20T14:48:23;0.60;;;0.50;;
17488;SDS011;8861;52.644;4.734;2023-07-20T14:50:50;0.50;;;0.50;;
17488;SDS011;8861;52.644;4.734;2023-07-20T14:53:17;0.50;;;0.50;;
17488;SDS011;8861;52.644;4.734;2023-07-20T14:55:44;0.57;;;0.57;;
17488;SDS011;8861;52.644;4.734;2023-07-20T14:58:11;0.40;;;0.40;;
17488;SDS011;8861;52.644;4.734;2023-07-20T15:00:38;0.50;;;0.50;;
17488;SDS011;8861;52.644;4.734;2023-07-20T15:03:05;0.80;;;0.60;;
17488;SDS011;8861;52.644;4.734;2023-07-20T15:05:36;0.93;;;0.60;;
17488;SDS011;8861;52.644;4.734;2023-07-20T15:08:03;0.57;;;0.57;;
17488;SDS011;8861;52.644;4.734;2023-07-20T15:10:31;0.50;;;0.50;;
17488;SDS011;8861;52.644;4.734;2023-07-20T15:12:58;0.50;;;0.47;;